sensor_id;sensor_type;location;lat;lon;timestamp;P1;durP1;ratioP1;P2;durP2;ratioP2
53977;SDS011;39886;47.984;-1.586;2022-09-09T00:00:20;1.83;;;0.80;;
53977;SDS011;39886;47.984;-1.586;2022-09-09T00:05:27;1.02;;;0.70;;
53977;SDS011;39886;47.984;-1.586;2022-09-09T00:08:02;1.80;;;0.80;;
53977;SDS011;39886;47.984;-1.586;2022-09-09T00:10:32;1.45;;;0.73;;
53977;SDS011;39886;47.984;-1.586;2022-09-09T00:15:59;1.88;;;0.82;;
53977;SDS011;39886;47.984;-1.586;2022-09-09T00:18:42;1.05;;;0.75;;
53977;SDS011;39886;47.984;-1.586;2022-09-09T00:24:13;1.67;;;0.80;;
53977;SDS011;39886;47.984;-1.586;2022-09-09T00:26:53;1.63;;;0.90;;
53977;SDS011;39886;47.984;-1.586;2022-09-09T00:29:28;2.72;;;1.02;;
53977;SDS011;39886;47.984;-1.586;2022-09-09T00:32:04;1.65;;;0.88;;
53977;SDS011;39886;47.984;-1.586;2022-09-09T00:34:39;1.83;;;0.98;;
53977;SDS011;39886;47.984;-1.586;2022-09-09T00:37:40;1.35;;;0.85;;
53977;SDS011;39886;47.984;-1.586;2022-09-09T00:40:18;1.85;;;0.70;;
53977;SDS011;39886;47.984;-1.586;2022-09-09T01:02:25;1.08;;;0.75;;
53977;SDS011;39886;47.984;-1.586;2022-09-09T01:05:07;1.33;;;0.83;;
53977;SDS011;39886;47.984;-1.586;2022-09-09T01:11:15;1.10;;;0.80;;
53977;SDS011;39886;47.984;-1.586;2022-09-09T01:13:25;1.95;;;0.70;;
53977;SDS011;39886;47.984;-1.586;2022-09-09T01:15:55;1.10;;;0.73;;
53977;SDS011;39886;47.984;-1.586;2022-09-09T01:18:29;2.60;;;0.93;;
53977;SDS011;39886;47.984;-1.586;2022-09-09T01:26:56;1.35;;;0.95;;
53977;SDS011;39886;47.984;-1.586;2022-09-09T01:29:26;2.60;;;0.98;;
53977;SDS011;39886;47.984;-1.586;2022-09-09T01:31:56;1.50;;;0.90;;
53977;SDS011;39886;47.984;-1.586;2022-09-09T01:34:25;1.35;;;0.80;;
53977;SDS011;39886;47.984;-1.586;2022-09-09T01:39:34;1.98;;;1.00;;
53977;SDS011;39886;47.984;-1.586;2022-09-09T01:42:02;1.38;;;0.90;;
53977;SDS011;39886;47.984;-1.586;2022-09-09T01:44:31;1.98;;;0.90;;
53977;SDS011;39886;47.984;-1.586;2022-09-09T01:46:57;1.35;;;0.80;;
53977;SDS011;39886;47.984;-1.586;2022-09-09T01:49:23;2.50;;;0.90;;
53977;SDS011;39886;47.984;-1.586;2022-09-09T01:51:50;2.10;;;0.80;;
53977;SDS011;39886;47.984;-1.586;2022-09-09T01:54:18;1.60;;;0.80;;
53977;SDS011;39886;47.984;-1.586;2022-09-09T02:05:26;1.50;;;0.80;;
53977;SDS011;39886;47.984;-1.586;2022-09-09T02:08:06;1.48;;;0.98;;
53977;SDS011;39886;47.984;-1.586;2022-09-09T02:10:42;1.42;;;0.70;;
53977;SDS011;39886;47.984;-1.586;2022-09-09T02:13:18;1.55;;;0.98;;
53977;SDS011;39886;47.984;-1.586;2022-09-09T02:18:32;1.20;;;0.80;;
53977;SDS011;39886;47.984;-1.586;2022-09-09T02:21:11;2.13;;;0.75;;
53977;SDS011;39886;47.984;-1.586;2022-09-09T02:23:39;2.03;;;0.80;;
53977;SDS011;39886;47.984;-1.586;2022-09-09T02:26:07;1.65;;;0.80;;
53977;SDS011;39886;47.984;-1.586;2022-09-09T02:28:35;1.75;;;0.90;;
53977;SDS011;39886;47.984;-1.586;2022-09-09T02:31:02;0.95;;;0.75;;
53977;SDS011;39886;47.984;-1.586;2022-09-09T02:33:30;1.23;;;0.60;;
53977;SDS011;39886;47.984;-1.586;2022-09-09T02:36:03;1.00;;;0.70;;
53977;SDS011;39886;47.984;-1.586;2022-09-09T02:38:34;0.90;;;0.60;;
53977;SDS011;39886;47.984;-1.586;2022-09-09T02:41:02;1.27;;;0.70;;
53977;SDS011;39886;47.984;-1.586;2022-09-09T02:43:34;1.75;;;0.77;;
53977;SDS011;39886;47.984;-1.586;2022-09-09T02:48:38;1.08;;;0.60;;
53977;SDS011;39886;47.984;-1.586;2022-09-09T02:51:24;1.60;;;0.80;;
53977;SDS011;39886;47.984;-1.586;2022-09-09T02:56:56;1.33;;;0.95;;
53977;SDS011;39886;47.984;-1.586;2022-09-09T02:59:44;1.45;;;1.00;;
53977;SDS011;39886;47.984;-1.586;2022-09-09T03:02:11;2.05;;;0.70;;
53977;SDS011;39886;47.984;-1.586;2022-09-09T03:04:38;0.75;;;0.60;;
53977;SDS011;39886;47.984;-1.586;2022-09-09T03:07:04;0.95;;;0.70;;
53977;SDS011;39886;47.984;-1.586;2022-09-09T03:09:31;1.48;;;0.90;;
53977;SDS011;39886;47.984;-1.586;2022-09-09T03:11:59;1.65;;;0.60;;
53977;SDS011;39886;47.984;-1.586;2022-09-09T03:14:25;0.93;;;0.65;;
53977;SDS011;39886;47.984;-1.586;2022-09-09T03:16:51;1.10;;;0.70;;
53977;SDS011;39886;47.984;-1.586;2022-09-09T03:19:17;1.23;;;0.70;;
53977;SDS011;39886;47.984;-1.586;2022-09-09T03:21:43;1.75;;;0.90;;
53977;SDS011;39886;47.984;-1.586;2022-09-09T03:24:10;1.90;;;0.80;;
53977;SDS011;39886;47.984;-1.586;2022-09-09T03:26:36;1.88;;;1.00;;
53977;SDS011;39886;47.984;-1.586;2022-09-09T03:29:03;1.38;;;0.70;;
53977;SDS011;39886;47.984;-1.586;2022-09-09T03:31:31;1.33;;;0.80;;
53977;SDS011;39886;47.984;-1.586;2022-09-09T03:33:58;1.40;;;0.73;;
53977;SDS011;39886;47.984;-1.586;2022-09-09T03:36:26;1.52;;;0.60;;
53977;SDS011;39886;47.984;-1.586;2022-09-09T03:38:53;0.73;;;0.73;;
53977;SDS011;39886;47.984;-1.586;2022-09-09T03:41:20;1.33;;;0.80;;
53977;SDS011;39886;47.984;-1.586;2022-09-09T03:43:49;0.52;;;0.52;;
53977;SDS011;39886;47.984;-1.586;2022-09-09T03:46:16;1.25;;;0.80;;
53977;SDS011;39886;47.984;-1.586;2022-09-09T03:48:42;1.02;;;0.65;;
53977;SDS011;39886;47.984;-1.586;2022-09-09T03:51:09;1.63;;;0.98;;
53977;SDS011;39886;47.984;-1.586;2022-09-09T03:53:35;1.00;;;0.70;;
53977;SDS011;39886;47.984;-1.586;2022-09-09T03:56:02;1.15;;;0.75;;
53977;SDS011;39886;47.984;-1.586;2022-09-09T03:58:29;1.15;;;0.80;;
53977;SDS011;39886;47.984;-1.586;2022-09-09T04:01:05;1.40;;;0.85;;
53977;SDS011;39886;47.984;-1.586;2022-09-09T04:03:35;1.00;;;0.60;;
53977;SDS011;39886;47.984;-1.586;2022-09-09T04:06:01;1.00;;;0.60;;
53977;SDS011;39886;47.984;-1.586;2022-09-09T04:08:29;2.60;;;0.80;;
53977;SDS011;39886;47.984;-1.586;2022-09-09T04:10:59;0.65;;;0.65;;
53977;SDS011;39886;47.984;-1.586;2022-09-09T04:13:26;1.02;;;0.70;;
53977;SDS011;39886;47.984;-1.586;2022-09-09T04:15:53;0.90;;;0.68;;
53977;SDS011;39886;47.984;-1.586;2022-09-09T04:18:21;1.10;;;0.70;;
53977;SDS011;39886;47.984;-1.586;2022-09-09T04:20:49;1.25;;;0.75;;
53977;SDS011;39886;47.984;-1.586;2022-09-09T04:23:16;1.38;;;0.60;;
53977;SDS011;39886;47.984;-1.586;2022-09-09T04:25:50;1.63;;;0.68;;
53977;SDS011;39886;47.984;-1.586;2022-09-09T04:28:17;0.70;;;0.50;;
53977;SDS011;39886;47.984;-1.586;2022-09-09T04:30:44;1.52;;;0.75;;
53977;SDS011;39886;47.984;-1.586;2022-09-09T04:33:10;1.30;;;0.90;;
53977;SDS011;39886;47.984;-1.586;2022-09-09T04:35:38;1.65;;;0.80;;
53977;SDS011;39886;47.984;-1.586;2022-09-09T04:38:08;0.60;;;0.50;;
53977;SDS011;39886;47.984;-1.586;2022-09-09T04:40:34;0.82;;;0.60;;
53977;SDS011;39886;47.984;-1.586;2022-09-09T04:43:01;0.88;;;0.60;;
53977;SDS011;39886;47.984;-1.586;2022-09-09T04:45:30;1.13;;;0.60;;
53977;SDS011;39886;47.984;-1.586;2022-09-09T04:47:56;1.05;;;0.60;;
53977;SDS011;39886;47.984;-1.586;2022-09-09T04:50:22;1.13;;;0.60;;
53977;SDS011;39886;47.984;-1.586;2022-09-09T04:52:48;2.42;;;0.90;;
53977;SDS011;39886;47.984;-1.586;2022-09-09T04:55:14;1.38;;;0.73;;
53977;SDS011;39886;47.984;-1.586;2022-09-09T04:57:40;0.63;;;0.52;;
53977;SDS011;39886;47.984;-1.586;2022-09-09T05:00:06;1.50;;;0.70;;
53977;SDS011;39886;47.984;-1.586;2022-09-09T05:02:33;0.73;;;0.60;;
53977;SDS011;39886;47.984;-1.586;2022-09-09T05:05:03;0.80;;;0.68;;
53977;SDS011;39886;47.984;-1.586;2022-09-09T05:07:30;0.88;;;0.70;;
53977;SDS011;39886;47.984;-1.586;2022-09-09T05:09:56;0.80;;;0.70;;
53977;SDS011;39886;47.984;-1.586;2022-09-09T05:12:22;1.33;;;0.85;;
53977;SDS011;39886;47.984;-1.586;2022-09-09T05:14:50;1.45;;;0.80;;
53977;SDS011;39886;47.984;-1.586;2022-09-09T05:17:17;1.27;;;0.70;;
53977;SDS011;39886;47.984;-1.586;2022-09-09T05:19:43;1.08;;;0.63;;
53977;SDS011;39886;47.984;-1.586;2022-09-09T05:22:09;0.52;;;0.52;;
53977;SDS011;39886;47.984;-1.586;2022-09-09T05:24:36;0.95;;;0.60;;
53977;SDS011;39886;47.984;-1.586;2022-09-09T05:27:03;1.15;;;0.70;;
53977;SDS011;39886;47.984;-1.586;2022-09-09T05:29:31;0.80;;;0.55;;
53977;SDS011;39886;47.984;-1.586;2022-09-09T05:31:58;1.23;;;0.60;;
53977;SDS011;39886;47.984;-1.586;2022-09-09T05:34:24;1.42;;;0.60;;
53977;SDS011;39886;47.984;-1.586;2022-09-09T05:36:50;1.10;;;0.70;;
53977;SDS011;39886;47.984;-1.586;2022-09-09T05:39:17;0.77;;;0.52;;
53977;SDS011;39886;47.984;-1.586;2022-09-09T05:41:43;0.82;;;0.63;;
53977;SDS011;39886;47.984;-1.586;2022-09-09T05:44:09;0.85;;;0.70;;
53977;SDS011;39886;47.984;-1.586;2022-09-09T05:46:34;0.77;;;0.73;;
53977;SDS011;39886;47.984;-1.586;2022-09-09T05:49:01;0.73;;;0.50;;
53977;SDS011;39886;47.984;-1.586;2022-09-09T05:51:28;1.05;;;0.73;;
53977;SDS011;39886;47.984;-1.586;2022-09-09T05:53:57;0.88;;;0.60;;
53977;SDS011;39886;47.984;-1.586;2022-09-09T05:56:25;1.88;;;0.70;;
53977;SDS011;39886;47.984;-1.586;2022-09-09T05:58:52;1.30;;;0.70;;
53977;SDS011;39886;47.984;-1.586;2022-09-09T06:01:22;0.60;;;0.60;;
53977;SDS011;39886;47.984;-1.586;2022-09-09T06:03:53;1.92;;;0.75;;
53977;SDS011;39886;47.984;-1.586;2022-09-09T06:06:23;0.82;;;0.65;;
53977;SDS011;39886;47.984;-1.586;2022-09-09T06:08:53;0.85;;;0.63;;
53977;SDS011;39886;47.984;-1.586;2022-09-09T06:11:22;1.50;;;0.77;;
53977;SDS011;39886;47.984;-1.586;2022-09-09T06:13:51;1.10;;;0.63;;
53977;SDS011;39886;47.984;-1.586;2022-09-09T06:16:22;1.42;;;0.60;;
53977;SDS011;39886;47.984;-1.586;2022-09-09T06:18:50;0.75;;;0.57;;
53977;SDS011;39886;47.984;-1.586;2022-09-09T06:21:20;0.80;;;0.70;;
53977;SDS011;39886;47.984;-1.586;2022-09-09T06:23:47;1.13;;;0.60;;
53977;SDS011;39886;47.984;-1.586;2022-09-09T06:26:17;1.33;;;0.70;;
53977;SDS011;39886;47.984;-1.586;2022-09-09T06:28:47;0.70;;;0.55;;
53977;SDS011;39886;47.984;-1.586;2022-09-09T06:31:18;1.27;;;0.70;;
53977;SDS011;39886;47.984;-1.586;2022-09-09T06:33:48;1.63;;;0.73;;
53977;SDS011;39886;47.984;-1.586;2022-09-09T06:36:17;2.53;;;0.80;;
53977;SDS011;39886;47.984;-1.586;2022-09-09T06:38:44;4.75;;;1.10;;
53977;SDS011;39886;47.984;-1.586;2022-09-09T06:41:11;3.83;;;1.08;;
53977;SDS011;39886;47.984;-1.586;2022-09-09T06:43:38;4.22;;;1.27;;
53977;SDS011;39886;47.984;-1.586;2022-09-09T06:46:08;4.70;;;1.30;;
53977;SDS011;39886;47.984;-1.586;2022-09-09T06:48:44;5.47;;;1.17;;
53977;SDS011;39886;47.984;-1.586;2022-09-09T06:53:38;4.45;;;1.30;;
53977;SDS011;39886;47.984;-1.586;2022-09-09T06:56:19;5.22;;;1.38;;
53977;SDS011;39886;47.984;-1.586;2022-09-09T06:58:46;9.65;;;2.28;;
53977;SDS011;39886;47.984;-1.586;2022-09-09T07:01:17;6.25;;;1.45;;
53977;SDS011;39886;47.984;-1.586;2022-09-09T07:03:47;7.28;;;1.40;;
53977;SDS011;39886;47.984;-1.586;2022-09-09T07:06:16;6.78;;;1.58;;
53977;SDS011;39886;47.984;-1.586;2022-09-09T07:08:50;7.57;;;1.50;;
53977;SDS011;39886;47.984;-1.586;2022-09-09T07:11:21;7.35;;;1.83;;
53977;SDS011;39886;47.984;-1.586;2022-09-09T07:13:48;6.35;;;1.77;;
53977;SDS011;39886;47.984;-1.586;2022-09-09T07:16:15;8.77;;;1.80;;
53977;SDS011;39886;47.984;-1.586;2022-09-09T07:18:43;12.50;;;1.80;;
53977;SDS011;39886;47.984;-1.586;2022-09-09T07:21:10;10.20;;;2.30;;
53977;SDS011;39886;47.984;-1.586;2022-09-09T07:23:37;8.77;;;2.13;;
53977;SDS011;39886;47.984;-1.586;2022-09-09T07:26:14;11.18;;;2.00;;
53977;SDS011;39886;47.984;-1.586;2022-09-09T07:28:41;6.72;;;2.03;;
53977;SDS011;39886;47.984;-1.586;2022-09-09T07:31:17;7.97;;;2.08;;
53977;SDS011;39886;47.984;-1.586;2022-09-09T07:34:02;8.55;;;2.35;;
53977;SDS011;39886;47.984;-1.586;2022-09-09T07:36:31;7.60;;;1.73;;
53977;SDS011;39886;47.984;-1.586;2022-09-09T07:38:59;7.20;;;2.17;;
53977;SDS011;39886;47.984;-1.586;2022-09-09T07:41:34;7.22;;;1.67;;
53977;SDS011;39886;47.984;-1.586;2022-09-09T07:44:08;9.07;;;1.73;;
53977;SDS011;39886;47.984;-1.586;2022-09-09T07:46:36;6.72;;;1.80;;
53977;SDS011;39886;47.984;-1.586;2022-09-09T07:49:04;8.07;;;1.92;;
53977;SDS011;39886;47.984;-1.586;2022-09-09T07:51:32;6.97;;;1.63;;
53977;SDS011;39886;47.984;-1.586;2022-09-09T07:54:03;10.57;;;1.83;;
53977;SDS011;39886;47.984;-1.586;2022-09-09T07:56:30;8.57;;;2.15;;
53977;SDS011;39886;47.984;-1.586;2022-09-09T07:58:57;5.70;;;1.70;;
53977;SDS011;39886;47.984;-1.586;2022-09-09T08:03:58;7.85;;;1.60;;
53977;SDS011;39886;47.984;-1.586;2022-09-09T08:06:26;5.75;;;1.85;;
53977;SDS011;39886;47.984;-1.586;2022-09-09T08:08:54;8.75;;;1.90;;
53977;SDS011;39886;47.984;-1.586;2022-09-09T08:11:20;10.38;;;1.90;;
53977;SDS011;39886;47.984;-1.586;2022-09-09T08:13:48;7.13;;;1.70;;
53977;SDS011;39886;47.984;-1.586;2022-09-09T08:16:24;9.73;;;2.20;;
53977;SDS011;39886;47.984;-1.586;2022-09-09T08:18:52;6.93;;;1.52;;
53977;SDS011;39886;47.984;-1.586;2022-09-09T08:21:23;9.10;;;1.70;;
53977;SDS011;39886;47.984;-1.586;2022-09-09T08:23:53;8.88;;;2.08;;
53977;SDS011;39886;47.984;-1.586;2022-09-09T08:26:23;8.68;;;2.35;;
53977;SDS011;39886;47.984;-1.586;2022-09-09T08:28:51;7.45;;;1.70;;
53977;SDS011;39886;47.984;-1.586;2022-09-09T08:31:20;9.75;;;2.60;;
53977;SDS011;39886;47.984;-1.586;2022-09-09T08:33:47;7.53;;;2.03;;
53977;SDS011;39886;47.984;-1.586;2022-09-09T08:36:14;8.45;;;2.20;;
53977;SDS011;39886;47.984;-1.586;2022-09-09T08:38:51;9.23;;;2.03;;
53977;SDS011;39886;47.984;-1.586;2022-09-09T08:43:58;11.27;;;2.00;;
53977;SDS011;39886;47.984;-1.586;2022-09-09T08:46:41;9.32;;;2.00;;
53977;SDS011;39886;47.984;-1.586;2022-09-09T08:49:24;7.75;;;1.95;;
53977;SDS011;39886;47.984;-1.586;2022-09-09T08:52:08;7.50;;;2.00;;
53977;SDS011;39886;47.984;-1.586;2022-09-09T08:54:41;7.47;;;2.10;;
53977;SDS011;39886;47.984;-1.586;2022-09-09T08:57:09;6.38;;;1.92;;
53977;SDS011;39886;47.984;-1.586;2022-09-09T08:59:40;6.47;;;1.80;;
53977;SDS011;39886;47.984;-1.586;2022-09-09T09:02:16;6.40;;;1.85;;
53977;SDS011;39886;47.984;-1.586;2022-09-09T09:12:44;9.63;;;2.10;;
53977;SDS011;39886;47.984;-1.586;2022-09-09T09:15:19;6.88;;;1.88;;
53977;SDS011;39886;47.984;-1.586;2022-09-09T09:17:48;5.78;;;1.77;;
53977;SDS011;39886;47.984;-1.586;2022-09-09T09:20:14;5.78;;;1.75;;
53977;SDS011;39886;47.984;-1.586;2022-09-09T09:22:47;6.38;;;1.88;;
53977;SDS011;39886;47.984;-1.586;2022-09-09T09:27:51;11.00;;;2.33;;
53977;SDS011;39886;47.984;-1.586;2022-09-09T09:30:28;9.93;;;1.92;;
53977;SDS011;39886;47.984;-1.586;2022-09-09T09:33:04;11.40;;;2.25;;
53977;SDS011;39886;47.984;-1.586;2022-09-09T09:35:36;8.35;;;2.28;;
53977;SDS011;39886;47.984;-1.586;2022-09-09T09:38:08;5.78;;;1.90;;
53977;SDS011;39886;47.984;-1.586;2022-09-09T09:40:52;8.00;;;1.90;;
53977;SDS011;39886;47.984;-1.586;2022-09-09T09:43:32;9.82;;;2.17;;
53977;SDS011;39886;47.984;-1.586;2022-09-09T09:45:59;4.82;;;1.60;;
53977;SDS011;39886;47.984;-1.586;2022-09-09T09:48:26;4.65;;;1.60;;
53977;SDS011;39886;47.984;-1.586;2022-09-09T09:50:54;7.82;;;1.67;;
53977;SDS011;39886;47.984;-1.586;2022-09-09T09:53:31;5.68;;;1.65;;
53977;SDS011;39886;47.984;-1.586;2022-09-09T09:56:00;6.07;;;1.67;;
53977;SDS011;39886;47.984;-1.586;2022-09-09T09:58:27;9.85;;;1.50;;
53977;SDS011;39886;47.984;-1.586;2022-09-09T10:00:57;5.07;;;1.55;;
53977;SDS011;39886;47.984;-1.586;2022-09-09T10:03:25;7.28;;;1.45;;
53977;SDS011;39886;47.984;-1.586;2022-09-09T10:05:55;7.00;;;1.83;;
53977;SDS011;39886;47.984;-1.586;2022-09-09T10:08:22;6.68;;;1.60;;
53977;SDS011;39886;47.984;-1.586;2022-09-09T10:10:57;7.70;;;1.77;;
53977;SDS011;39886;47.984;-1.586;2022-09-09T10:19:35;8.00;;;1.92;;
53977;SDS011;39886;47.984;-1.586;2022-09-09T10:22:04;7.07;;;1.40;;
53977;SDS011;39886;47.984;-1.586;2022-09-09T10:25:02;3.55;;;1.40;;
53977;SDS011;39886;47.984;-1.586;2022-09-09T10:36:13;7.63;;;2.00;;
53977;SDS011;39886;47.984;-1.586;2022-09-09T10:38:48;7.22;;;2.08;;
53977;SDS011;39886;47.984;-1.586;2022-09-09T10:41:39;9.27;;;2.40;;
53977;SDS011;39886;47.984;-1.586;2022-09-09T10:50:06;5.30;;;1.83;;
53977;SDS011;39886;47.984;-1.586;2022-09-09T10:53:10;4.82;;;1.80;;
53977;SDS011;39886;47.984;-1.586;2022-09-09T10:55:48;6.32;;;2.20;;
53977;SDS011;39886;47.984;-1.586;2022-09-09T10:58:31;5.60;;;2.20;;
53977;SDS011;39886;47.984;-1.586;2022-09-09T11:01:21;4.00;;;1.80;;
53977;SDS011;39886;47.984;-1.586;2022-09-09T11:04:25;4.07;;;1.55;;
53977;SDS011;39886;47.984;-1.586;2022-09-09T11:06:48;7.15;;;2.33;;
53977;SDS011;39886;47.984;-1.586;2022-09-09T11:11:54;6.07;;;2.20;;
53977;SDS011;39886;47.984;-1.586;2022-09-09T11:14:22;4.53;;;1.95;;
53977;SDS011;39886;47.984;-1.586;2022-09-09T11:16:52;5.40;;;2.25;;
53977;SDS011;39886;47.984;-1.586;2022-09-09T11:21:48;3.67;;;1.88;;
53977;SDS011;39886;47.984;-1.586;2022-09-09T11:24:36;4.18;;;1.83;;
53977;SDS011;39886;47.984;-1.586;2022-09-09T11:27:19;5.32;;;2.17;;
53977;SDS011;39886;47.984;-1.586;2022-09-09T11:32:51;3.92;;;1.70;;
53977;SDS011;39886;47.984;-1.586;2022-09-09T11:40:56;3.60;;;1.70;;
53977;SDS011;39886;47.984;-1.586;2022-09-09T11:46:04;4.60;;;2.10;;
53977;SDS011;39886;47.984;-1.586;2022-09-09T11:48:33;6.35;;;2.10;;
53977;SDS011;39886;47.984;-1.586;2022-09-09T11:51:05;5.68;;;1.80;;
53977;SDS011;39886;47.984;-1.586;2022-09-09T11:53:34;5.07;;;2.08;;
53977;SDS011;39886;47.984;-1.586;2022-09-09T11:56:05;3.70;;;1.63;;
53977;SDS011;39886;47.984;-1.586;2022-09-09T12:01:12;6.72;;;2.53;;
53977;SDS011;39886;47.984;-1.586;2022-09-09T12:03:51;3.33;;;1.55;;
53977;SDS011;39886;47.984;-1.586;2022-09-09T12:06:33;4.10;;;1.50;;
53977;SDS011;39886;47.984;-1.586;2022-09-09T12:12:28;4.85;;;1.50;;
53977;SDS011;39886;47.984;-1.586;2022-09-09T12:14:56;5.47;;;1.80;;
53977;SDS011;39886;47.984;-1.586;2022-09-09T12:17:47;2.60;;;1.38;;
53977;SDS011;39886;47.984;-1.586;2022-09-09T12:29:12;3.88;;;1.35;;
53977;SDS011;39886;47.984;-1.586;2022-09-09T12:31:42;5.43;;;1.52;;
53977;SDS011;39886;47.984;-1.586;2022-09-09T12:39:58;5.30;;;1.30;;
53977;SDS011;39886;47.984;-1.586;2022-09-09T12:42:27;6.32;;;1.40;;
53977;SDS011;39886;47.984;-1.586;2022-09-09T12:44:54;3.78;;;1.40;;
53977;SDS011;39886;47.984;-1.586;2022-09-09T12:47:21;4.47;;;1.98;;
53977;SDS011;39886;47.984;-1.586;2022-09-09T12:52:55;3.28;;;1.40;;
53977;SDS011;39886;47.984;-1.586;2022-09-09T12:55:28;4.85;;;1.63;;
53977;SDS011;39886;47.984;-1.586;2022-09-09T12:58:03;7.93;;;2.08;;
53977;SDS011;39886;47.984;-1.586;2022-09-09T13:00:31;5.13;;;1.45;;
53977;SDS011;39886;47.984;-1.586;2022-09-09T13:02:59;6.97;;;1.88;;
53977;SDS011;39886;47.984;-1.586;2022-09-09T13:05:35;4.63;;;1.60;;
53977;SDS011;39886;47.984;-1.586;2022-09-09T13:08:06;2.60;;;1.45;;
53977;SDS011;39886;47.984;-1.586;2022-09-09T13:13:03;5.25;;;1.23;;
53977;SDS011;39886;47.984;-1.586;2022-09-09T13:15:30;4.57;;;1.30;;
53977;SDS011;39886;47.984;-1.586;2022-09-09T13:18:01;3.22;;;1.50;;
53977;SDS011;39886;47.984;-1.586;2022-09-09T13:20:33;3.75;;;1.40;;
53977;SDS011;39886;47.984;-1.586;2022-09-09T13:22:59;2.85;;;0.93;;
53977;SDS011;39886;47.984;-1.586;2022-09-09T13:25:25;6.38;;;1.30;;
53977;SDS011;39886;47.984;-1.586;2022-09-09T13:27:59;3.63;;;1.20;;
53977;SDS011;39886;47.984;-1.586;2022-09-09T13:30:28;2.63;;;1.10;;
53977;SDS011;39886;47.984;-1.586;2022-09-09T13:35:46;8.07;;;1.30;;
53977;SDS011;39886;47.984;-1.586;2022-09-09T13:38:19;5.65;;;1.30;;
53977;SDS011;39886;47.984;-1.586;2022-09-09T13:40:55;9.30;;;1.50;;
53977;SDS011;39886;47.984;-1.586;2022-09-09T13:43:22;4.13;;;1.20;;
53977;SDS011;39886;47.984;-1.586;2022-09-09T13:45:57;5.72;;;1.27;;
53977;SDS011;39886;47.984;-1.586;2022-09-09T13:48:25;8.23;;;1.58;;
53977;SDS011;39886;47.984;-1.586;2022-09-09T13:50:59;5.22;;;1.30;;
53977;SDS011;39886;47.984;-1.586;2022-09-09T13:53:26;7.53;;;1.98;;
53977;SDS011;39886;47.984;-1.586;2022-09-09T13:55:52;7.78;;;1.58;;
53977;SDS011;39886;47.984;-1.586;2022-09-09T13:58:18;7.45;;;1.45;;
53977;SDS011;39886;47.984;-1.586;2022-09-09T14:00:44;9.48;;;1.38;;
53977;SDS011;39886;47.984;-1.586;2022-09-09T14:03:11;2.97;;;0.98;;
53977;SDS011;39886;47.984;-1.586;2022-09-09T14:05:37;6.55;;;1.30;;
53977;SDS011;39886;47.984;-1.586;2022-09-09T14:08:04;6.05;;;1.40;;
53977;SDS011;39886;47.984;-1.586;2022-09-09T14:10:30;4.18;;;1.20;;
53977;SDS011;39886;47.984;-1.586;2022-09-09T14:12:56;7.47;;;1.27;;
53977;SDS011;39886;47.984;-1.586;2022-09-09T14:15:22;4.60;;;1.50;;
53977;SDS011;39886;47.984;-1.586;2022-09-09T14:17:48;3.78;;;1.05;;
53977;SDS011;39886;47.984;-1.586;2022-09-09T14:20:14;5.53;;;1.13;;
53977;SDS011;39886;47.984;-1.586;2022-09-09T14:22:40;7.72;;;1.27;;
53977;SDS011;39886;47.984;-1.586;2022-09-09T14:25:06;5.88;;;1.38;;
53977;SDS011;39886;47.984;-1.586;2022-09-09T14:27:32;6.30;;;1.58;;
53977;SDS011;39886;47.984;-1.586;2022-09-09T14:29:58;5.50;;;1.10;;
53977;SDS011;39886;47.984;-1.586;2022-09-09T14:32:26;7.35;;;1.50;;
53977;SDS011;39886;47.984;-1.586;2022-09-09T14:34:52;3.80;;;1.40;;
53977;SDS011;39886;47.984;-1.586;2022-09-09T14:37:18;3.60;;;1.02;;
53977;SDS011;39886;47.984;-1.586;2022-09-09T14:39:44;5.88;;;1.30;;
53977;SDS011;39886;47.984;-1.586;2022-09-09T14:42:11;3.95;;;1.17;;
53977;SDS011;39886;47.984;-1.586;2022-09-09T14:44:38;5.25;;;1.30;;
53977;SDS011;39886;47.984;-1.586;2022-09-09T14:47:05;2.08;;;0.80;;
53977;SDS011;39886;47.984;-1.586;2022-09-09T14:49:31;3.97;;;1.33;;
53977;SDS011;39886;47.984;-1.586;2022-09-09T14:51:56;4.95;;;1.42;;
53977;SDS011;39886;47.984;-1.586;2022-09-09T14:54:22;6.88;;;1.58;;
53977;SDS011;39886;47.984;-1.586;2022-09-09T14:56:48;6.05;;;1.30;;
53977;SDS011;39886;47.984;-1.586;2022-09-09T14:59:13;3.20;;;1.20;;
53977;SDS011;39886;47.984;-1.586;2022-09-09T15:01:39;2.60;;;1.00;;
53977;SDS011;39886;47.984;-1.586;2022-09-09T15:04:06;3.17;;;1.15;;
53977;SDS011;39886;47.984;-1.586;2022-09-09T15:06:33;3.20;;;0.90;;
53977;SDS011;39886;47.984;-1.586;2022-09-09T15:09:00;2.80;;;0.90;;
53977;SDS011;39886;47.984;-1.586;2022-09-09T15:11:27;3.75;;;0.88;;
53977;SDS011;39886;47.984;-1.586;2022-09-09T15:13:59;2.97;;;0.90;;
53977;SDS011;39886;47.984;-1.586;2022-09-09T15:16:26;2.92;;;1.10;;
53977;SDS011;39886;47.984;-1.586;2022-09-09T15:18:54;1.52;;;0.77;;
53977;SDS011;39886;47.984;-1.586;2022-09-09T15:21:23;3.38;;;0.82;;
53977;SDS011;39886;47.984;-1.586;2022-09-09T15:23:50;7.53;;;0.75;;
53977;SDS011;39886;47.984;-1.586;2022-09-09T15:26:16;3.60;;;0.82;;
53977;SDS011;39886;47.984;-1.586;2022-09-09T15:28:43;2.42;;;1.08;;
53977;SDS011;39886;47.984;-1.586;2022-09-09T15:31:21;3.67;;;0.90;;
53977;SDS011;39886;47.984;-1.586;2022-09-09T15:33:49;3.50;;;1.05;;
53977;SDS011;39886;47.984;-1.586;2022-09-09T15:36:17;3.28;;;0.90;;
53977;SDS011;39886;47.984;-1.586;2022-09-09T15:38:48;2.83;;;0.95;;
53977;SDS011;39886;47.984;-1.586;2022-09-09T15:41:15;3.42;;;0.90;;
53977;SDS011;39886;47.984;-1.586;2022-09-09T15:43:45;3.10;;;1.02;;
53977;SDS011;39886;47.984;-1.586;2022-09-09T15:46:23;2.20;;;1.02;;
53977;SDS011;39886;47.984;-1.586;2022-09-09T15:51:43;2.50;;;0.70;;
53977;SDS011;39886;47.984;-1.586;2022-09-09T15:54:14;1.58;;;0.80;;
53977;SDS011;39886;47.984;-1.586;2022-09-09T15:56:45;2.63;;;1.10;;
53977;SDS011;39886;47.984;-1.586;2022-09-09T15:59:13;2.53;;;0.93;;
53977;SDS011;39886;47.984;-1.586;2022-09-09T16:01:39;3.50;;;0.98;;
53977;SDS011;39886;47.984;-1.586;2022-09-09T16:04:07;1.73;;;0.70;;
53977;SDS011;39886;47.984;-1.586;2022-09-09T16:06:33;3.38;;;0.98;;
53977;SDS011;39886;47.984;-1.586;2022-09-09T16:08:59;3.08;;;0.93;;
53977;SDS011;39886;47.984;-1.586;2022-09-09T16:11:28;4.25;;;0.93;;
53977;SDS011;39886;47.984;-1.586;2022-09-09T16:13:56;1.35;;;0.60;;
53977;SDS011;39886;47.984;-1.586;2022-09-09T16:16:23;1.85;;;0.90;;
53977;SDS011;39886;47.984;-1.586;2022-09-09T16:18:52;3.92;;;0.82;;
53977;SDS011;39886;47.984;-1.586;2022-09-09T16:21:29;3.42;;;0.82;;
53977;SDS011;39886;47.984;-1.586;2022-09-09T16:23:57;3.10;;;1.10;;
53977;SDS011;39886;47.984;-1.586;2022-09-09T16:26:31;1.75;;;1.00;;
53977;SDS011;39886;47.984;-1.586;2022-09-09T16:28:58;3.47;;;1.00;;
53977;SDS011;39886;47.984;-1.586;2022-09-09T16:31:25;1.20;;;0.80;;
53977;SDS011;39886;47.984;-1.586;2022-09-09T16:33:52;2.42;;;1.05;;
53977;SDS011;39886;47.984;-1.586;2022-09-09T16:36:24;1.67;;;0.70;;
53977;SDS011;39886;47.984;-1.586;2022-09-09T16:38:54;2.47;;;1.00;;
53977;SDS011;39886;47.984;-1.586;2022-09-09T16:41:22;1.77;;;0.85;;
53977;SDS011;39886;47.984;-1.586;2022-09-09T16:43:52;4.20;;;1.00;;
53977;SDS011;39886;47.984;-1.586;2022-09-09T16:46:19;1.95;;;0.77;;
53977;SDS011;39886;47.984;-1.586;2022-09-09T16:48:46;1.27;;;0.85;;
53977;SDS011;39886;47.984;-1.586;2022-09-09T16:53:44;1.85;;;0.80;;
53977;SDS011;39886;47.984;-1.586;2022-09-09T16:56:20;2.72;;;1.00;;
53977;SDS011;39886;47.984;-1.586;2022-09-09T16:58:51;2.10;;;0.95;;
53977;SDS011;39886;47.984;-1.586;2022-09-09T17:01:20;2.22;;;0.95;;
53977;SDS011;39886;47.984;-1.586;2022-09-09T17:03:55;2.15;;;0.88;;
53977;SDS011;39886;47.984;-1.586;2022-09-09T17:06:23;1.83;;;0.80;;
53977;SDS011;39886;47.984;-1.586;2022-09-09T17:08:57;1.60;;;0.80;;
53977;SDS011;39886;47.984;-1.586;2022-09-09T17:11:25;2.92;;;1.17;;
53977;SDS011;39886;47.984;-1.586;2022-09-09T17:13:51;2.10;;;0.90;;
53977;SDS011;39886;47.984;-1.586;2022-09-09T17:16:18;2.10;;;0.93;;